sensor_id;sensor_type;location;lat;lon;timestamp;temperature;humidity
18906;DHT22;9585;51.018;4.282;2023-02-28T00:01:40;-0.40;99.90
18906;DHT22;9585;51.018;4.282;2023-02-28T00:04:24;-0.40;99.90
18906;DHT22;9585;51.018;4.282;2023-02-28T00:06:54;-0.50;99.90
18906;DHT22;9585;51.018;4.282;2023-02-28T00:09:22;-0.50;99.90
18906;DHT22;9585;51.018;4.282;2023-02-28T00:11:51;-0.40;99.90
18906;DHT22;9585;51.018;4.282;2023-02-28T00:14:24;-0.50;99.90
18906;DHT22;9585;51.018;4.282;2023-02-28T00:16:52;-0.50;99.90
18906;DHT22;9585;51.018;4.282;2023-02-28T00:19:20;-0.50;99.90
18906;DHT22;9585;51.018;4.282;2023-02-28T00:21:53;-0.50;99.90
18906;DHT22;9585;51.018;4.282;2023-02-28T00:24:21;-0.50;99.90
18906;DHT22;9585;51.018;4.282;2023-02-28T00:26:49;-0.60;99.90
18906;DHT22;9585;51.018;4.282;2023-02-28T00:29:19;-0.60;99.90
18906;DHT22;9585;51.018;4.282;2023-02-28T00:31:47;-0.50;99.90
18906;DHT22;9585;51.018;4.282;2023-02-28T00:34:17;-0.50;99.90
18906;DHT22;9585;51.018;4.282;2023-02-28T00:36:45;-0.60;99.90
18906;DHT22;9585;51.018;4.282;2023-02-28T00:39:18;-0.70;99.90
18906;DHT22;9585;51.018;4.282;2023-02-28T00:41:46;-0.70;99.90
18906;DHT22;9585;51.018;4.282;2023-02-28T00:44:13;-0.70;99.90
18906;DHT22;9585;51.018;4.282;2023-02-28T00:46:40;-0.60;99.90
18906;DHT22;9585;51.018;4.282;2023-02-28T00:49:18;-0.60;99.90
18906;DHT22;9585;51.018;4.282;2023-02-28T00:51:52;-0.50;99.90
18906;DHT22;9585;51.018;4.282;2023-02-28T00:54:22;-0.40;99.90
18906;DHT22;9585;51.018;4.282;2023-02-28T00:56:49;-0.40;99.90
18906;DHT22;9585;51.018;4.282;2023-02-28T00:59:17;-0.40;99.90
18906;DHT22;9585;51.018;4.282;2023-02-28T01:01:46;-0.30;99.90
18906;DHT22;9585;51.018;4.282;2023-02-28T01:04:16;-0.30;99.90
18906;DHT22;9585;51.018;4.282;2023-02-28T01:06:44;-0.40;99.90
18906;DHT22;9585;51.018;4.282;2023-02-28T01:09:38;-0.40;99.90
18906;DHT22;9585;51.018;4.282;2023-02-28T01:12:07;-0.30;99.90
18906;DHT22;9585;51.018;4.282;2023-02-28T01:14:35;-0.30;99.90
18906;DHT22;9585;51.018;4.282;2023-02-28T01:17:02;-0.40;99.90
18906;DHT22;9585;51.018;4.282;2023-02-28T01:19:30;-0.30;99.90
18906;DHT22;9585;51.018;4.282;2023-02-28T01:22:00;-0.20;99.90
18906;DHT22;9585;51.018;4.282;2023-02-28T01:24:27;-0.30;99.90
18906;DHT22;9585;51.018;4.282;2023-02-28T01:26:56;-0.30;99.90
18906;DHT22;9585;51.018;4.282;2023-02-28T01:29:24;-0.30;99.90
18906;DHT22;9585;51.018;4.282;2023-02-28T01:31:51;-0.30;99.90
18906;DHT22;9585;51.018;4.282;2023-02-28T01:34:24;-0.20;99.90
18906;DHT22;9585;51.018;4.282;2023-02-28T01:36:57;-0.10;99.90
18906;DHT22;9585;51.018;4.282;2023-02-28T01:39:24;-0.20;99.90
18906;DHT22;9585;51.018;4.282;2023-02-28T01:41:52;-0.10;99.90
18906;DHT22;9585;51.018;4.282;2023-02-28T01:47:41;-0.30;99.90
18906;DHT22;9585;51.018;4.282;2023-02-28T01:50:12;-0.20;99.90
18906;DHT22;9585;51.018;4.282;2023-02-28T01:52:42;-0.40;99.90
18906;DHT22;9585;51.018;4.282;2023-02-28T01:55:11;-0.40;99.90
18906;DHT22;9585;51.018;4.282;2023-02-28T01:57:42;-0.50;99.90
18906;DHT22;9585;51.018;4.282;2023-02-28T02:00:12;-0.50;99.90
18906;DHT22;9585;51.018;4.282;2023-02-28T02:02:43;-0.50;99.90
18906;DHT22;9585;51.018;4.282;2023-02-28T02:05:14;-0.50;99.90
18906;DHT22;9585;51.018;4.282;2023-02-28T02:07:44;-0.60;99.90
18906;DHT22;9585;51.018;4.282;2023-02-28T02:10:14;-0.70;99.90
18906;DHT22;9585;51.018;4.282;2023-02-28T02:13:01;-0.70;99.90
18906;DHT22;9585;51.018;4.282;2023-02-28T02:15:34;-0.70;99.90
18906;DHT22;9585;51.018;4.282;2023-02-28T02:18:22;-0.80;99.90
18906;DHT22;9585;51.018;4.282;2023-02-28T02:24:11;-0.80;99.90
18906;DHT22;9585;51.018;4.282;2023-02-28T02:35:52;-0.80;99.90
18906;DHT22;9585;51.018;4.282;2023-02-28T02:38:30;-0.80;99.90
18906;DHT22;9585;51.018;4.282;2023-02-28T02:41:04;-0.80;99.90
18906;DHT22;9585;51.018;4.282;2023-02-28T02:43:38;-0.80;99.90
18906;DHT22;9585;51.018;4.282;2023-02-28T02:46:12;-0.80;99.90
18906;DHT22;9585;51.018;4.282;2023-02-28T02:48:42;-0.90;99.90
18906;DHT22;9585;51.018;4.282;2023-02-28T02:51:14;-0.90;99.90
18906;DHT22;9585;51.018;4.282;2023-02-28T02:53:46;-1.00;99.90
18906;DHT22;9585;51.018;4.282;2023-02-28T02:56:19;-1.00;99.90
18906;DHT22;9585;51.018;4.282;2023-02-28T02:58:53;-1.00;99.90
18906;DHT22;9585;51.018;4.282;2023-02-28T03:01:24;-1.00;99.90
18906;DHT22;9585;51.018;4.282;2023-02-28T03:03:56;-1.00;99.90
18906;DHT22;9585;51.018;4.282;2023-02-28T03:06:26;-1.10;99.90
18906;DHT22;9585;51.018;4.282;2023-02-28T03:08:54;-1.00;99.90
18906;DHT22;9585;51.018;4.282;2023-02-28T03:11:24;-1.00;99.90
18906;DHT22;9585;51.018;4.282;2023-02-28T03:14:14;-1.10;99.90
18906;DHT22;9585;51.018;4.282;2023-02-28T03:17:14;-1.20;99.90
18906;DHT22;9585;51.018;4.282;2023-02-28T03:19:55;-1.20;99.90
18906;DHT22;9585;51.018;4.282;2023-02-28T03:23:00;-1.30;99.90
18906;DHT22;9585;51.018;4.282;2023-02-28T03:25:33;-1.30;99.90
18906;DHT22;9585;51.018;4.282;2023-02-28T03:28:12;-1.40;99.90
18906;DHT22;9585;51.018;4.282;2023-02-28T03:30:50;-1.40;99.90
18906;DHT22;9585;51.018;4.282;2023-02-28T03:33:23;-1.50;99.90
18906;DHT22;9585;51.018;4.282;2023-02-28T03:35:53;-1.50;99.90
18906;DHT22;9585;51.018;4.282;2023-02-28T03:38:37;-1.60;99.90
18906;DHT22;9585;51.018;4.282;2023-02-28T03:41:11;-1.50;99.90
18906;DHT22;9585;51.018;4.282;2023-02-28T03:43:44;-1.50;99.90
18906;DHT22;9585;51.018;4.282;2023-02-28T03:46:16;-1.40;99.90
18906;DHT22;9585;51.018;4.282;2023-02-28T03:48:51;-1.40;99.90
18906;DHT22;9585;51.018;4.282;2023-02-28T03:51:24;-1.30;99.90
18906;DHT22;9585;51.018;4.282;2023-02-28T03:53:57;-1.20;99.90
18906;DHT22;9585;51.018;4.282;2023-02-28T03:57:05;-1.30;99.90
18906;DHT22;9585;51.018;4.282;2023-02-28T03:59:37;-1.50;99.90
18906;DHT22;9585;51.018;4.282;2023-02-28T04:02:05;-1.50;99.90
18906;DHT22;9585;51.018;4.282;2023-02-28T04:04:33;-1.40;99.90
18906;DHT22;9585;51.018;4.282;2023-02-28T04:07:12;-1.40;99.90
18906;DHT22;9585;51.018;4.282;2023-02-28T04:09:44;-1.40;99.90
18906;DHT22;9585;51.018;4.282;2023-02-28T04:12:12;-1.50;99.90
18906;DHT22;9585;51.018;4.282;2023-02-28T04:14:47;-1.60;99.90
18906;DHT22;9585;51.018;4.282;2023-02-28T04:17:20;-1.60;99.90
18906;DHT22;9585;51.018;4.282;2023-02-28T04:19:52;-1.60;99.90
18906;DHT22;9585;51.018;4.282;2023-02-28T04:22:25;-1.60;99.90
18906;DHT22;9585;51.018;4.282;2023-02-28T04:25:02;-1.60;99.90
18906;DHT22;9585;51.018;4.282;2023-02-28T04:27:37;-1.60;99.90
18906;DHT22;9585;51.018;4.282;2023-02-28T04:30:12;-1.60;99.90
18906;DHT22;9585;51.018;4.282;2023-02-28T04:32:43;-1.60;99.90
18906;DHT22;9585;51.018;4.282;2023-02-28T04:35:16;-1.70;99.90
18906;DHT22;9585;51.018;4.282;2023-02-28T04:37:48;-1.60;99.90
18906;DHT22;9585;51.018;4.282;2023-02-28T04:40:22;-1.60;99.90
18906;DHT22;9585;51.018;4.282;2023-02-28T04:42:54;-1.50;99.90
18906;DHT22;9585;51.018;4.282;2023-02-28T04:45:25;-1.30;99.90
18906;DHT22;9585;51.018;4.282;2023-02-28T04:47:55;-1.30;99.90
18906;DHT22;9585;51.018;4.282;2023-02-28T04:50:28;-1.10;99.90
18906;DHT22;9585;51.018;4.282;2023-02-28T04:52:56;-1.00;99.90
18906;DHT22;9585;51.018;4.282;2023-02-28T04:55:27;-0.80;99.90
18906;DHT22;9585;51.018;4.282;2023-02-28T04:57:55;-0.80;99.90
18906;DHT22;9585;51.018;4.282;2023-02-28T05:00:43;-0.70;99.90
18906;DHT22;9585;51.018;4.282;2023-02-28T05:03:13;-0.60;99.90
18906;DHT22;9585;51.018;4.282;2023-02-28T05:05:41;-0.60;99.90
18906;DHT22;9585;51.018;4.282;2023-02-28T05:08:17;-0.60;99.90
18906;DHT22;9585;51.018;4.282;2023-02-28T05:10:49;-0.50;99.90
18906;DHT22;9585;51.018;4.282;2023-02-28T05:13:28;-0.50;99.90
18906;DHT22;9585;51.018;4.282;2023-02-28T05:15:58;-0.30;99.90
18906;DHT22;9585;51.018;4.282;2023-02-28T05:18:35;-0.40;99.90
18906;DHT22;9585;51.018;4.282;2023-02-28T05:21:05;-0.30;99.90
18906;DHT22;9585;51.018;4.282;2023-02-28T05:23:33;-0.30;99.90
18906;DHT22;9585;51.018;4.282;2023-02-28T05:26:03;-0.20;99.90
18906;DHT22;9585;51.018;4.282;2023-02-28T05:28:33;-0.10;99.90
18906;DHT22;9585;51.018;4.282;2023-02-28T05:31:04;0.00;99.90
18906;DHT22;9585;51.018;4.282;2023-02-28T05:33:44;-0.10;99.90
18906;DHT22;9585;51.018;4.282;2023-02-28T05:36:26;0.00;99.90
18906;DHT22;9585;51.018;4.282;2023-02-28T05:38:57;0.00;99.90
18906;DHT22;9585;51.018;4.282;2023-02-28T05:41:32;-0.10;99.90
18906;DHT22;9585;51.018;4.282;2023-02-28T05:44:03;-0.10;99.90
18906;DHT22;9585;51.018;4.282;2023-02-28T05:46:31;0.00;99.90
18906;DHT22;9585;51.018;4.282;2023-02-28T05:49:01;0.00;99.90
18906;DHT22;9585;51.018;4.282;2023-02-28T05:51:32;0.00;99.90
18906;DHT22;9585;51.018;4.282;2023-02-28T05:54:05;0.10;99.90
18906;DHT22;9585;51.018;4.282;2023-02-28T05:56:36;0.10;99.90
18906;DHT22;9585;51.018;4.282;2023-02-28T05:59:12;0.10;99.90
18906;DHT22;9585;51.018;4.282;2023-02-28T06:01:49;0.10;99.90
18906;DHT22;9585;51.018;4.282;2023-02-28T06:04:19;0.20;99.90
18906;DHT22;9585;51.018;4.282;2023-02-28T06:06:50;0.20;99.90
18906;DHT22;9585;51.018;4.282;2023-02-28T06:09:20;0.20;99.90
18906;DHT22;9585;51.018;4.282;2023-02-28T06:11:49;0.30;99.90
18906;DHT22;9585;51.018;4.282;2023-02-28T06:14:19;0.30;99.90
18906;DHT22;9585;51.018;4.282;2023-02-28T06:16:50;0.30;99.90
18906;DHT22;9585;51.018;4.282;2023-02-28T06:19:18;0.40;99.90
18906;DHT22;9585;51.018;4.282;2023-02-28T06:21:49;0.30;99.90
18906;DHT22;9585;51.018;4.282;2023-02-28T06:24:16;0.40;99.90
18906;DHT22;9585;51.018;4.282;2023-02-28T06:26:43;0.40;99.90
18906;DHT22;9585;51.018;4.282;2023-02-28T06:29:12;0.50;99.90
18906;DHT22;9585;51.018;4.282;2023-02-28T06:31:44;0.40;99.90
18906;DHT22;9585;51.018;4.282;2023-02-28T06:34:14;0.40;99.90
18906;DHT22;9585;51.018;4.282;2023-02-28T06:36:42;0.30;99.90
18906;DHT22;9585;51.018;4.282;2023-02-28T06:39:09;0.30;99.90
18906;DHT22;9585;51.018;4.282;2023-02-28T06:41:37;0.30;99.90
18906;DHT22;9585;51.018;4.282;2023-02-28T06:44:13;0.30;99.90
18906;DHT22;9585;51.018;4.282;2023-02-28T06:46:42;0.30;99.90
18906;DHT22;9585;51.018;4.282;2023-02-28T06:49:11;0.30;99.90
18906;DHT22;9585;51.018;4.282;2023-02-28T06:51:43;0.30;99.90
18906;DHT22;9585;51.018;4.282;2023-02-28T06:54:12;0.30;99.90
18906;DHT22;9585;51.018;4.282;2023-02-28T06:56:43;0.40;99.90
18906;DHT22;9585;51.018;4.282;2023-02-28T06:59:15;0.50;99.90
18906;DHT22;9585;51.018;4.282;2023-02-28T07:01:48;0.60;99.90
18906;DHT22;9585;51.018;4.282;2023-02-28T07:04:16;0.70;99.90
18906;DHT22;9585;51.018;4.282;2023-02-28T07:06:44;0.70;99.90
18906;DHT22;9585;51.018;4.282;2023-02-28T07:09:11;0.70;99.90
18906;DHT22;9585;51.018;4.282;2023-02-28T07:11:39;0.80;99.90
18906;DHT22;9585;51.018;4.282;2023-02-28T07:14:11;0.90;99.90
18906;DHT22;9585;51.018;4.282;2023-02-28T07:16:40;0.90;99.90
18906;DHT22;9585;51.018;4.282;2023-02-28T07:19:07;1.00;99.90
18906;DHT22;9585;51.018;4.282;2023-02-28T07:21:34;1.00;99.90
18906;DHT22;9585;51.018;4.282;2023-02-28T07:24:05;1.20;99.90
18906;DHT22;9585;51.018;4.282;2023-02-28T07:26:36;1.50;99.90
18906;DHT22;9585;51.018;4.282;2023-02-28T07:29:03;1.90;99.90
18906;DHT22;9585;51.018;4.282;2023-02-28T07:31:34;2.40;99.90
18906;DHT22;9585;51.018;4.282;2023-02-28T07:34:05;2.90;99.90
18906;DHT22;9585;51.018;4.282;2023-02-28T07:36:35;3.30;99.90
18906;DHT22;9585;51.018;4.282;2023-02-28T07:39:06;3.50;99.90
18906;DHT22;9585;51.018;4.282;2023-02-28T07:41:35;3.40;99.90
18906;DHT22;9585;51.018;4.282;2023-02-28T07:44:12;3.60;99.90
18906;DHT22;9585;51.018;4.282;2023-02-28T07:46:39;3.60;99.90
18906;DHT22;9585;51.018;4.282;2023-02-28T07:49:08;3.40;99.90
18906;DHT22;9585;51.018;4.282;2023-02-28T07:51:36;3.40;99.90
18906;DHT22;9585;51.018;4.282;2023-02-28T07:54:06;3.50;99.90
18906;DHT22;9585;51.018;4.282;2023-02-28T07:56:33;3.50;99.90
18906;DHT22;9585;51.018;4.282;2023-02-28T07:59:04;3.50;99.90
18906;DHT22;9585;51.018;4.282;2023-02-28T08:01:34;3.30;99.90
18906;DHT22;9585;51.018;4.282;2023-02-28T08:04:01;3.20;99.90
18906;DHT22;9585;51.018;4.282;2023-02-28T08:06:30;3.10;99.90
18906;DHT22;9585;51.018;4.282;2023-02-28T08:09:00;2.90;99.90
18906;DHT22;9585;51.018;4.282;2023-02-28T08:11:27;2.90;99.90
18906;DHT22;9585;51.018;4.282;2023-02-28T08:13:55;2.80;99.90
18906;DHT22;9585;51.018;4.282;2023-02-28T08:16:25;2.80;99.90
18906;DHT22;9585;51.018;4.282;2023-02-28T08:18:53;2.80;99.90
18906;DHT22;9585;51.018;4.282;2023-02-28T08:21:21;2.90;99.90
18906;DHT22;9585;51.018;4.282;2023-02-28T08:24:01;2.90;99.90
18906;DHT22;9585;51.018;4.282;2023-02-28T08:26:41;2.80;99.90
18906;DHT22;9585;51.018;4.282;2023-02-28T08:29:10;2.80;99.90
18906;DHT22;9585;51.018;4.282;2023-02-28T08:31:38;2.70;99.90
18906;DHT22;9585;51.018;4.282;2023-02-28T08:34:06;2.60;99.90
18906;DHT22;9585;51.018;4.282;2023-02-28T08:36:33;2.40;99.90
18906;DHT22;9585;51.018;4.282;2023-02-28T08:39:02;2.20;99.90
18906;DHT22;9585;51.018;4.282;2023-02-28T08:41:30;2.10;99.90
18906;DHT22;9585;51.018;4.282;2023-02-28T08:43:58;2.00;99.90
18906;DHT22;9585;51.018;4.282;2023-02-28T08:46:26;1.80;99.90
18906;DHT22;9585;51.018;4.282;2023-02-28T08:48:54;1.90;99.90
18906;DHT22;9585;51.018;4.282;2023-02-28T08:51:21;2.00;99.90
18906;DHT22;9585;51.018;4.282;2023-02-28T08:53:52;2.00;99.90
18906;DHT22;9585;51.018;4.282;2023-02-28T08:56:21;1.90;99.90
18906;DHT22;9585;51.018;4.282;2023-02-28T08:58:50;2.00;99.90
18906;DHT22;9585;51.018;4.282;2023-02-28T09:01:19;1.90;99.90
18906;DHT22;9585;51.018;4.282;2023-02-28T09:03:49;1.70;99.90
18906;DHT22;9585;51.018;4.282;2023-02-28T09:06:18;1.60;99.90
18906;DHT22;9585;51.018;4.282;2023-02-28T09:08:47;1.50;99.90
18906;DHT22;9585;51.018;4.282;2023-02-28T09:11:15;1.60;99.90
18906;DHT22;9585;51.018;4.282;2023-02-28T09:13:44;1.90;99.90
18906;DHT22;9585;51.018;4.282;2023-02-28T09:16:13;1.80;99.90
18906;DHT22;9585;51.018;4.282;2023-02-28T09:18:42;1.70;99.90
18906;DHT22;9585;51.018;4.282;2023-02-28T09:21:11;1.90;99.90
18906;DHT22;9585;51.018;4.282;2023-02-28T09:23:41;2.00;99.90
18906;DHT22;9585;51.018;4.282;2023-02-28T09:26:14;2.30;99.90
18906;DHT22;9585;51.018;4.282;2023-02-28T09:28:43;2.70;99.90
18906;DHT22;9585;51.018;4.282;2023-02-28T09:31:15;3.00;99.90
18906;DHT22;9585;51.018;4.282;2023-02-28T09:33:46;3.00;99.90
18906;DHT22;9585;51.018;4.282;2023-02-28T09:36:14;3.10;99.90
18906;DHT22;9585;51.018;4.282;2023-02-28T09:38:41;3.40;99.90
18906;DHT22;9585;51.018;4.282;2023-02-28T09:41:13;3.60;99.90
18906;DHT22;9585;51.018;4.282;2023-02-28T09:43:45;3.50;99.90
18906;DHT22;9585;51.018;4.282;2023-02-28T09:46:30;3.40;99.90
18906;DHT22;9585;51.018;4.282;2023-02-28T09:49:01;3.20;99.90
18906;DHT22;9585;51.018;4.282;2023-02-28T09:51:39;3.10;99.90
18906;DHT22;9585;51.018;4.282;2023-02-28T09:54:14;2.90;99.90
18906;DHT22;9585;51.018;4.282;2023-02-28T09:56:45;2.80;99.90
18906;DHT22;9585;51.018;4.282;2023-02-28T09:59:29;2.80;99.90
18906;DHT22;9585;51.018;4.282;2023-02-28T10:02:08;2.70;99.90
18906;DHT22;9585;51.018;4.282;2023-02-28T10:04:44;2.80;99.90
18906;DHT22;9585;51.018;4.282;2023-02-28T10:07:26;2.70;99.90
18906;DHT22;9585;51.018;4.282;2023-02-28T10:09:59;3.00;99.90
18906;DHT22;9585;51.018;4.282;2023-02-28T10:12:30;2.90;99.90
18906;DHT22;9585;51.018;4.282;2023-02-28T10:15:00;2.80;99.90
18906;DHT22;9585;51.018;4.282;2023-02-28T10:17:36;2.70;99.90
18906;DHT22;9585;51.018;4.282;2023-02-28T10:20:09;2.60;99.90
18906;DHT22;9585;51.018;4.282;2023-02-28T10:22:44;2.60;99.90
18906;DHT22;9585;51.018;4.282;2023-02-28T10:25:19;2.90;99.90
18906;DHT22;9585;51.018;4.282;2023-02-28T10:27:46;3.10;99.90
18906;DHT22;9585;51.018;4.282;2023-02-28T10:30:15;3.30;99.90
18906;DHT22;9585;51.018;4.282;2023-02-28T10:32:49;3.30;99.90
18906;DHT22;9585;51.018;4.282;2023-02-28T10:35:20;3.10;99.90
18906;DHT22;9585;51.018;4.282;2023-02-28T10:37:49;2.90;99.90
18906;DHT22;9585;51.018;4.282;2023-02-28T10:40:30;3.00;99.90
18906;DHT22;9585;51.018;4.282;2023-02-28T10:42:59;2.90;99.90
18906;DHT22;9585;51.018;4.282;2023-02-28T10:45:29;2.70;99.90
18906;DHT22;9585;51.018;4.282;2023-02-28T10:47:59;2.70;99.90
18906;DHT22;9585;51.018;4.282;2023-02-28T10:50:33;2.60;99.90
18906;DHT22;9585;51.018;4.282;2023-02-28T10:53:25;2.60;99.90
18906;DHT22;9585;51.018;4.282;2023-02-28T10:56:00;2.60;99.90
18906;DHT22;9585;51.018;4.282;2023-02-28T10:58:30;2.60;99.90
18906;DHT22;9585;51.018;4.282;2023-02-28T11:00:59;2.80;99.90
18906;DHT22;9585;51.018;4.282;2023-02-28T11:03:31;2.90;99.90
18906;DHT22;9585;51.018;4.282;2023-02-28T11:06:05;2.90;99.90
18906;DHT22;9585;51.018;4.282;2023-02-28T11:08:33;3.10;99.90
18906;DHT22;9585;51.018;4.282;2023-02-28T11:11:04;3.00;99.90
18906;DHT22;9585;51.018;4.282;2023-02-28T11:13:35;3.30;99.90
18906;DHT22;9585;51.018;4.282;2023-02-28T11:16:07;3.20;99.90
18906;DHT22;9585;51.018;4.282;2023-02-28T11:18:40;3.40;99.90
18906;DHT22;9585;51.018;4.282;2023-02-28T11:21:14;3.30;99.90
18906;DHT22;9585;51.018;4.282;2023-02-28T11:23:43;3.10;99.90
18906;DHT22;9585;51.018;4.282;2023-02-28T11:26:11;2.90;99.90
18906;DHT22;9585;51.018;4.282;2023-02-28T11:28:39;3.00;99.90
18906;DHT22;9585;51.018;4.282;2023-02-28T11:31:18;3.00;99.90
18906;DHT22;9585;51.018;4.282;2023-02-28T11:33:50;3.10;99.90
18906;DHT22;9585;51.018;4.282;2023-02-28T11:36:20;3.40;99.90
18906;DHT22;9585;51.018;4.282;2023-02-28T11:38:51;3.60;99.90
18906;DHT22;9585;51.018;4.282;2023-02-28T11:41:37;3.50;99.90
18906;DHT22;9585;51.018;4.282;2023-02-28T11:44:20;3.60;99.90
18906;DHT22;9585;51.018;4.282;2023-02-28T11:46:54;3.90;99.90
18906;DHT22;9585;51.018;4.282;2023-02-28T11:49:32;4.00;99.90
18906;DHT22;9585;51.018;4.282;2023-02-28T11:52:13;4.00;99.90
18906;DHT22;9585;51.018;4.282;2023-02-28T11:54:54;4.00;99.90
18906;DHT22;9585;51.018;4.282;2023-02-28T11:57:35;4.00;99.90
18906;DHT22;9585;51.018;4.282;2023-02-28T12:00:13;4.10;99.90
18906;DHT22;9585;51.018;4.282;2023-02-28T12:03:03;4.20;99.90
18906;DHT22;9585;51.018;4.282;2023-02-28T12:05:40;4.30;99.90
18906;DHT22;9585;51.018;4.282;2023-02-28T12:08:23;4.40;99.90
18906;DHT22;9585;51.018;4.282;2023-02-28T12:11:00;4.00;99.90
18906;DHT22;9585;51.018;4.282;2023-02-28T12:13:42;4.20;99.90
18906;DHT22;9585;51.018;4.282;2023-02-28T12:16:27;4.20;99.90
18906;DHT22;9585;51.018;4.282;2023-02-28T12:19:10;4.50;99.90
18906;DHT22;9585;51.018;4.282;2023-02-28T12:21:50;4.70;99.90
18906;DHT22;9585;51.018;4.282;2023-02-28T12:24:36;4.30;99.90
18906;DHT22;9585;51.018;4.282;2023-02-28T12:27:09;4.20;99.90
18906;DHT22;9585;51.018;4.282;2023-02-28T12:29:43;4.40;99.90
18906;DHT22;9585;51.018;4.282;2023-02-28T12:32:23;4.40;99.90
18906;DHT22;9585;51.018;4.282;2023-02-28T12:35:00;4.50;99.90
18906;DHT22;9585;51.018;4.282;2023-02-28T12:37:36;4.60;99.90
18906;DHT22;9585;51.018;4.282;2023-02-28T12:40:12;4.70;99.90
18906;DHT22;9585;51.018;4.282;2023-02-28T12:42:42;4.60;99.90
18906;DHT22;9585;51.018;4.282;2023-02-28T12:45:17;4.60;99.90
18906;DHT22;9585;51.018;4.282;2023-02-28T12:47:48;4.50;99.90
18906;DHT22;9585;51.018;4.282;2023-02-28T12:50:19;4.60;99.90
18906;DHT22;9585;51.018;4.282;2023-02-28T12:52:54;4.20;99.90
18906;DHT22;9585;51.018;4.282;2023-02-28T12:55:29;4.00;99.90
18906;DHT22;9585;51.018;4.282;2023-02-28T12:58:05;3.90;99.90
18906;DHT22;9585;51.018;4.282;2023-02-28T13:00:38;4.10;99.90
18906;DHT22;9585;51.018;4.282;2023-02-28T13:03:37;4.00;99.90
18906;DHT22;9585;51.018;4.282;2023-02-28T13:06:44;3.80;99.90
18906;DHT22;9585;51.018;4.282;2023-02-28T13:09:23;4.00;99.90
18906;DHT22;9585;51.018;4.282;2023-02-28T13:12:01;4.30;99.90
18906;DHT22;9585;51.018;4.282;2023-02-28T13:14:35;4.50;99.90
18906;DHT22;9585;51.018;4.282;2023-02-28T13:17:10;4.10;99.90
18906;DHT22;9585;51.018;4.282;2023-02-28T13:19:45;4.10;99.90
18906;DHT22;9585;51.018;4.282;2023-02-28T13:22:38;4.20;99.90
18906;DHT22;9585;51.018;4.282;2023-02-28T13:32:27;4.30;99.90
18906;DHT22;9585;51.018;4.282;2023-02-28T13:35:14;4.70;99.90
18906;DHT22;9585;51.018;4.282;2023-02-28T13:37:47;4.50;99.90
18906;DHT22;9585;51.018;4.282;2023-02-28T13:40:38;4.60;99.90
18906;DHT22;9585;51.018;4.282;2023-02-28T13:43:08;4.00;99.90
18906;DHT22;9585;51.018;4.282;2023-02-28T13:46:11;3.70;99.90
18906;DHT22;9585;51.018;4.282;2023-02-28T13:48:40;4.00;99.90
18906;DHT22;9585;51.018;4.282;2023-02-28T13:51:42;4.00;99.90
18906;DHT22;9585;51.018;4.282;2023-02-28T13:54:26;3.80;99.90
18906;DHT22;9585;51.018;4.282;2023-02-28T13:57:07;3.90;99.90
18906;DHT22;9585;51.018;4.282;2023-02-28T13:59:49;4.10;99.90
18906;DHT22;9585;51.018;4.282;2023-02-28T14:02:38;4.20;99.90
18906;DHT22;9585;51.018;4.282;2023-02-28T14:05:15;3.60;99.90
18906;DHT22;9585;51.018;4.282;2023-02-28T14:07:48;3.50;99.90
18906;DHT22;9585;51.018;4.282;2023-02-28T14:10:26;3.50;99.90
18906;DHT22;9585;51.018;4.282;2023-02-28T14:13:03;3.50;99.90
18906;DHT22;9585;51.018;4.282;2023-02-28T14:15:56;3.40;99.90
18906;DHT22;9585;51.018;4.282;2023-02-28T14:18:29;3.30;99.90
18906;DHT22;9585;51.018;4.282;2023-02-28T14:21:21;3.50;99.90
18906;DHT22;9585;51.018;4.282;2023-02-28T14:27:28;3.60;99.90
18906;DHT22;9585;51.018;4.282;2023-02-28T14:30:15;3.50;99.90
18906;DHT22;9585;51.018;4.282;2023-02-28T14:32:54;3.50;99.90
18906;DHT22;9585;51.018;4.282;2023-02-28T14:35:43;3.40;99.90
18906;DHT22;9585;51.018;4.282;2023-02-28T14:38:18;3.50;99.90
18906;DHT22;9585;51.018;4.282;2023-02-28T14:40:49;3.50;99.90
18906;DHT22;9585;51.018;4.282;2023-02-28T14:43:24;3.40;99.90
18906;DHT22;9585;51.018;4.282;2023-02-28T14:45:56;3.50;99.90
18906;DHT22;9585;51.018;4.282;2023-02-28T14:48:24;3.30;99.90
18906;DHT22;9585;51.018;4.282;2023-02-28T14:50:54;3.20;99.90
18906;DHT22;9585;51.018;4.282;2023-02-28T14:53:28;3.30;99.90
18906;DHT22;9585;51.018;4.282;2023-02-28T14:55:56;3.40;99.90
18906;DHT22;9585;51.018;4.282;2023-02-28T14:58:27;3.50;99.90
18906;DHT22;9585;51.018;4.282;2023-02-28T15:00:56;3.70;99.90
18906;DHT22;9585;51.018;4.282;2023-02-28T15:03:30;3.80;99.90
18906;DHT22;9585;51.018;4.282;2023-02-28T15:05:59;4.10;99.90
18906;DHT22;9585;51.018;4.282;2023-02-28T15:08:29;4.00;99.90
18906;DHT22;9585;51.018;4.282;2023-02-28T15:11:03;4.10;99.90
18906;DHT22;9585;51.018;4.282;2023-02-28T15:13:42;4.40;99.90
18906;DHT22;9585;51.018;4.282;2023-02-28T15:16:15;4.50;99.90
18906;DHT22;9585;51.018;4.282;2023-02-28T15:18:54;4.40;99.90
18906;DHT22;9585;51.018;4.282;2023-02-28T15:21:28;4.20;99.90
18906;DHT22;9585;51.018;4.282;2023-02-28T15:24:00;3.70;99.90
18906;DHT22;9585;51.018;4.282;2023-02-28T15:26:36;3.40;99.90
18906;DHT22;9585;51.018;4.282;2023-02-28T15:29:11;3.60;99.90
18906;DHT22;9585;51.018;4.282;2023-02-28T15:31:43;3.60;99.90
18906;DHT22;9585;51.018;4.282;2023-02-28T15:34:18;3.40;99.90
18906;DHT22;9585;51.018;4.282;2023-02-28T15:36:47;3.40;99.90
18906;DHT22;9585;51.018;4.282;2023-02-28T15:39:22;3.50;99.90
18906;DHT22;9585;51.018;4.282;2023-02-28T15:41:50;3.60;99.90
18906;DHT22;9585;51.018;4.282;2023-02-28T15:44:25;3.60;99.90
18906;DHT22;9585;51.018;4.282;2023-02-28T15:47:01;3.40;99.90
18906;DHT22;9585;51.018;4.282;2023-02-28T15:49:32;3.20;99.90
18906;DHT22;9585;51.018;4.282;2023-02-28T15:52:04;3.40;99.90
18906;DHT22;9585;51.018;4.282;2023-02-28T15:54:33;3.50;99.90
18906;DHT22;9585;51.018;4.282;2023-02-28T15:57:04;3.40;99.90
18906;DHT22;9585;51.018;4.282;2023-02-28T15:59:36;3.30;99.90
18906;DHT22;9585;51.018;4.282;2023-02-28T16:02:19;3.20;99.90
18906;DHT22;9585;51.018;4.282;2023-02-28T16:05:22;3.20;99.90
18906;DHT22;9585;51.018;4.282;2023-02-28T16:07:54;3.30;99.90
18906;DHT22;9585;51.018;4.282;2023-02-28T16:10:26;3.20;99.90
18906;DHT22;9585;51.018;4.282;2023-02-28T16:12:55;3.20;99.90
18906;DHT22;9585;51.018;4.282;2023-02-28T16:15:27;3.30;99.90
18906;DHT22;9585;51.018;4.282;2023-02-28T16:17:56;3.20;99.90
18906;DHT22;9585;51.018;4.282;2023-02-28T16:20:25;3.10;99.90
18906;DHT22;9585;51.018;4.282;2023-02-28T16:22:53;3.00;99.90
18906;DHT22;9585;51.018;4.282;2023-02-28T16:25:23;2.80;99.90
18906;DHT22;9585;51.018;4.282;2023-02-28T16:27:52;2.90;99.90
18906;DHT22;9585;51.018;4.282;2023-02-28T16:30:27;3.10;99.90
18906;DHT22;9585;51.018;4.282;2023-02-28T16:32:58;3.20;99.90
18906;DHT22;9585;51.018;4.282;2023-02-28T16:35:25;3.10;99.90
18906;DHT22;9585;51.018;4.282;2023-02-28T16:37:53;2.90;99.90
18906;DHT22;9585;51.018;4.282;2023-02-28T16:40:28;2.80;99.90
18906;DHT22;9585;51.018;4.282;2023-02-28T16:43:00;2.70;99.90
18906;DHT22;9585;51.018;4.282;2023-02-28T16:45:33;2.70;99.90
18906;DHT22;9585;51.018;4.282;2023-02-28T16:48:00;2.70;99.90
18906;DHT22;9585;51.018;4.282;2023-02-28T16:50:29;2.70;99.90
18906;DHT22;9585;51.018;4.282;2023-02-28T16:52:58;2.60;99.90
18906;DHT22;9585;51.018;4.282;2023-02-28T16:55:26;2.60;99.90
18906;DHT22;9585;51.018;4.282;2023-02-28T16:57:55;2.60;99.90
18906;DHT22;9585;51.018;4.282;2023-02-28T17:00:24;2.50;99.90
18906;DHT22;9585;51.018;4.282;2023-02-28T17:02:53;2.50;99.90